Time;durP1;ratioP1;P1;durP2;ratioP2;P2;SDS_P1;SDS_P2;PMS_P1;PMS_P2;Temp;Humidity;BMP_temperature;BMP_pressure;BME280_temperature;BME280_humidity;BME280_pressure;Samples;Min_cycle;Max_cycle;Signal;HPM_P1;HPM_P2
2021/03/24 00:00:22;;;;;;;61.95;37.85;;;;;;;3.50;80.55;102328.31;5277164;28;20044;-70
2021/03/24 00:02:55;;;;;;;49.28;35.10;;;;;;;3.44;80.18;102312.97;5277596;28;20111;-70
2021/03/24 00:05:31;;;;;;;53.85;34.38;;;;;;;3.51;80.01;102323.06;5276023;28;20493;-70
2021/03/24 00:08:03;;;;;;;58.28;36.45;;;;;;;3.43;79.77;102325.06;5273646;28;20385;-70
2021/03/24 00:10:37;;;;;;;48.17;34.00;;;;;;;3.41;79.09;102325.13;5275528;28;20043;-70
2021/03/24 00:13:09;;;;;;;52.05;34.85;;;;;;;3.40;79.74;102331.19;5277687;28;20032;-70
2021/03/24 00:15:41;;;;;;;56.05;34.33;;;;;;;3.38;80.05;102319.19;5275989;28;20085;-70
2021/03/24 00:18:12;;;;;;;56.95;35.60;;;;;;;3.31;79.69;102321.13;5277313;28;20016;-70
2021/03/24 00:20:45;;;;;;;51.83;33.58;;;;;;;3.41;79.47;102317.34;5277513;28;20045;-70
2021/03/24 00:23:16;;;;;;;53.78;35.05;;;;;;;3.33;79.95;102308.09;5277405;28;20032;-70
2021/03/24 00:25:48;;;;;;;58.78;36.00;;;;;;;3.31;80.96;102317.69;5274665;28;20231;-70
2021/03/24 00:28:19;;;;;;;62.55;36.30;;;;;;;3.32;81.16;102312.44;5275640;28;20020;-70
2021/03/24 00:30:51;;;;;;;56.03;35.90;;;;;;;3.27;81.07;102316.09;5277079;28;20491;-70
2021/03/24 00:33:25;;;;;;;58.20;36.75;;;;;;;3.28;80.91;102299.63;5276655;28;20050;-70
2021/03/24 00:35:57;;;;;;;64.88;36.63;;;;;;;3.17;80.68;102303.41;5276104;28;20081;-70
2021/03/24 00:38:28;;;;;;;59.05;37.05;;;;;;;3.29;81.56;102309.09;5275955;28;20032;-70
2021/03/24 00:41:00;;;;;;;69.72;40.67;;;;;;;3.29;81.12;102309.94;5276795;28;20032;-70
2021/03/24 00:43:32;;;;;;;62.30;36.47;;;;;;;3.28;80.32;102307.41;5276356;28;20024;-70
2021/03/24 00:46:03;;;;;;;66.85;39.05;;;;;;;3.22;81.43;102305.00;5275104;28;20035;-70
2021/03/24 00:48:35;;;;;;;63.45;39.58;;;;;;;3.20;80.81;102311.97;5274168;28;20032;-70
2021/03/24 00:51:07;;;;;;;70.05;39.90;;;;;;;3.25;81.12;102316.13;5275895;28;20290;-70
2021/03/24 00:53:38;;;;;;;61.70;39.17;;;;;;;3.14;80.61;102311.28;5276785;28;20024;-70
2021/03/24 00:56:09;;;;;;;62.33;39.50;;;;;;;3.21;81.27;102306.75;5275451;28;20369;-70
2021/03/24 00:58:40;;;;;;;65.47;42.13;;;;;;;3.25;82.22;102303.16;5275906;28;20059;-70
2021/03/24 01:01:12;;;;;;;79.25;42.22;;;;;;;3.20;81.78;102302.47;5276444;28;20115;-70
2021/03/24 01:03:43;;;;;;;67.38;41.58;;;;;;;3.17;82.05;102306.00;5275190;28;20023;-70
2021/03/24 01:06:14;;;;;;;69.15;42.47;;;;;;;3.23;82.11;102293.75;5276281;28;20036;-70
2021/03/24 01:08:46;;;;;;;67.95;43.55;;;;;;;3.16;82.18;102290.50;5274174;28;20024;-70
2021/03/24 01:11:18;;;;;;;71.30;44.97;;;;;;;3.17;82.22;102287.00;5276296;28;20036;-70
2021/03/24 01:13:49;;;;;;;64.45;42.33;;;;;;;3.20;82.45;102288.69;5276217;28;20020;-70
2021/03/24 01:16:20;;;;;;;67.93;44.10;;;;;;;3.26;82.01;102289.34;5274068;28;20028;-70
2021/03/24 01:18:51;;;;;;;68.70;45.17;;;;;;;3.27;83.21;102287.59;5276050;28;20103;-70
2021/03/24 01:21:23;;;;;;;69.50;47.20;;;;;;;3.22;83.00;102277.38;5275407;28;20102;-70
2021/03/24 01:23:54;;;;;;;64.00;44.15;;;;;;;3.24;83.24;102279.91;5275920;28;20047;-69
2021/03/24 01:26:26;;;;;;;66.65;46.42;;;;;;;3.19;82.68;102267.13;5274874;28;20028;-70
2021/03/24 01:29:00;;;;;;;67.90;46.38;;;;;;;3.22;82.96;102272.19;5275921;28;20020;-70
2021/03/24 01:31:32;;;;;;;67.65;46.78;;;;;;;3.26;83.50;102275.50;5276422;28;20032;-70
2021/03/24 01:34:03;;;;;;;73.40;48.25;;;;;;;3.26;82.97;102275.50;5274828;28;20323;-71
2021/03/24 01:36:34;;;;;;;71.68;45.53;;;;;;;3.26;83.71;102276.38;5276164;28;20051;-70
2021/03/24 01:39:06;;;;;;;67.75;45.63;;;;;;;3.23;83.56;102270.47;5276339;28;20029;-70
2021/03/24 01:41:38;;;;;;;70.60;45.85;;;;;;;3.22;83.75;102263.56;5276503;28;20035;-70
2021/03/24 01:44:09;;;;;;;66.82;46.83;;;;;;;3.20;82.81;102271.38;5273836;28;20498;-70
2021/03/24 01:46:44;;;;;;;70.95;46.35;;;;;;;3.21;83.37;102262.72;5275663;28;20106;-70
2021/03/24 01:49:18;;;;;;;66.50;46.05;;;;;;;3.21;82.78;102267.06;5275326;28;20115;-70
2021/03/24 01:51:57;;;;;;;;;;;;;;;3.38;81.28;102275.16;5275787;28;20102;-70
2021/03/24 01:54:37;;;;;;;61.92;42.60;;;;;;;3.21;82.28;102272.22;5273588;28;19912;-70
2021/03/24 01:57:13;;;;;;;59.60;41.97;;;;;;;3.09;82.87;102268.28;5269936;28;20385;-70
2021/03/24 01:59:45;;;;;;;62.10;43.90;;;;;;;3.00;83.11;102269.41;5273658;28;20084;-70
2021/03/24 02:02:28;;;;;;;65.43;45.38;;;;;;;3.05;82.93;102267.53;5275289;28;20067;-70
2021/03/24 02:05:00;;;;;;;67.78;44.03;;;;;;;2.95;82.27;102268.69;5273005;28;20039;-70
2021/03/24 02:07:47;;;;;;;64.20;44.30;;;;;;;3.00;82.59;102265.97;5274935;28;20020;-70
2021/03/24 02:10:48;;;;;;;62.60;43.85;;;;;;;3.07;82.94;102270.94;5273805;28;20032;-69
2021/03/24 02:13:35;;;;;;;66.82;44.38;;;;;;;3.04;84.01;102265.00;5274863;28;20012;-70
2021/03/24 02:16:15;;;;;;;64.10;44.70;;;;;;;2.98;83.80;102255.66;5275774;28;20059;-69
2021/03/24 02:18:49;;;;;;;65.18;44.33;;;;;;;2.98;83.72;102266.00;5274789;28;20547;-69
2021/03/24 02:21:41;;;;;;;66.63;45.65;;;;;;;2.99;83.52;102262.53;5276069;28;20031;-69
2021/03/24 02:24:35;;;;;;;65.28;45.15;;;;;;;2.99;83.12;102262.53;5273775;28;20094;-69
2021/03/24 02:27:15;;;;;;;68.32;45.60;;;;;;;2.86;83.44;102264.66;5274585;28;20048;-69
2021/03/24 02:29:52;;;;;;;65.10;43.97;;;;;;;2.85;83.09;102267.28;5273823;28;20032;-71
2021/03/24 02:32:28;;;;;;;70.93;46.17;;;;;;;2.85;83.96;102259.53;5274817;28;20036;-71
2021/03/24 02:35:04;;;;;;;68.60;45.28;;;;;;;2.84;83.49;102255.22;5275316;28;20028;-70
2021/03/24 02:37:36;;;;;;;67.97;43.00;;;;;;;2.74;82.93;102253.81;5274053;28;20488;-70
2021/03/24 02:40:11;;;;;;;67.28;45.67;;;;;;;2.77;83.48;102256.31;5273849;28;20032;-70
2021/03/24 02:42:45;;;;;;;65.47;44.83;;;;;;;2.73;83.93;102244.34;5275358;28;20397;-70
2021/03/24 02:45:21;;;;;;;67.57;46.08;;;;;;;2.78;83.97;102247.66;5273369;28;20097;-71
2021/03/24 02:47:57;;;;;;;69.35;46.20;;;;;;;2.74;84.94;102240.88;5275455;28;20033;-70
2021/03/24 02:50:30;;;;;;;68.15;46.75;;;;;;;2.72;84.60;102235.72;5274794;28;20037;-70
2021/03/24 02:53:02;;;;;;;69.43;44.60;;;;;;;2.76;84.89;102244.25;5273553;28;20032;-70
2021/03/24 02:55:36;;;;;;;67.25;43.67;;;;;;;2.75;84.65;102242.56;5274892;28;20125;-70
2021/03/24 02:58:07;;;;;;;;;;;;;;;2.91;83.20;102239.47;5275735;28;20036;-71
2021/03/24 03:00:40;;;;;;;64.93;42.92;;;;;;;2.67;84.04;102241.03;5271755;28;20381;-71
2021/03/24 03:03:16;;;;;;;63.72;42.45;;;;;;;2.69;84.34;102241.03;5273993;28;20177;-71
2021/03/24 03:05:48;;;;;;;66.32;44.33;;;;;;;2.67;84.64;102230.69;5268136;28;20024;-70
2021/03/24 03:08:28;;;;;;;68.72;45.45;;;;;;;2.64;84.44;102235.97;5274759;28;20052;-70
2021/03/24 03:11:16;;;;;;;67.75;46.28;;;;;;;2.68;84.82;102232.38;5275500;28;20028;-70
2021/03/24 03:13:52;;;;;;;75.00;48.10;;;;;;;2.70;85.30;102237.53;5273149;28;20131;-71
2021/03/24 03:16:35;;;;;;;68.75;45.45;;;;;;;2.71;85.43;102240.97;5276911;28;20074;-71
2021/03/24 03:19:16;;;;;;;69.97;45.20;;;;;;;2.66;85.22;102239.38;5275947;28;20052;-71
2021/03/24 03:21:51;;;;;;;71.55;45.72;;;;;;;2.65;85.03;102237.69;5277850;28;20595;-69
2021/03/24 03:24:26;;;;;;;73.53;46.38;;;;;;;2.62;85.20;102240.34;5277578;28;20064;-69
2021/03/24 03:27:01;;;;;;;69.40;45.13;;;;;;;2.57;84.86;102237.03;5278363;28;20028;-72
2021/03/24 03:29:32;;;;;;;71.78;44.67;;;;;;;2.58;85.70;102236.16;5277741;28;20043;-71
2021/03/24 03:32:05;;;;;;;73.93;46.92;;;;;;;2.62;85.31;102226.56;5276815;28;20401;-71
2021/03/24 03:34:38;;;;;;;70.45;46.90;;;;;;;2.61;85.58;102219.66;5274065;28;20040;-70
2021/03/24 03:37:10;;;;;;;69.78;45.15;;;;;;;2.64;85.67;102228.19;5277714;28;20020;-69
2021/03/24 03:39:44;;;;;;;73.32;44.80;;;;;;;2.64;85.85;102222.19;5278643;28;20047;-69
2021/03/24 03:42:16;;;;;;;74.80;46.55;;;;;;;2.61;85.49;102217.09;5276768;28;20032;-70
2021/03/24 03:44:49;;;;;;;84.40;46.75;;;;;;;2.66;86.17;102235.94;5277817;28;20032;-70
2021/03/24 03:47:22;;;;;;;84.90;50.25;;;;;;;2.67;85.66;102224.69;5277870;28;20025;-69
2021/03/24 03:49:53;;;;;;;74.32;48.75;;;;;;;2.66;85.83;102221.25;5276026;28;20028;-71
2021/03/24 03:52:55;;;;;;;74.35;47.55;;;;;;;2.71;85.79;102225.44;5278261;28;20032;-71
2021/03/24 03:55:35;;;;;;;78.60;47.88;;;;;;;2.72;85.62;102221.94;5275360;28;20089;-71
2021/03/24 03:58:17;;;;;;;75.85;47.28;;;;;;;2.70;86.25;102219.41;5274811;28;20024;-70
2021/03/24 04:01:15;;;;;;;79.70;48.45;;;;;;;2.73;85.71;102215.88;5277777;28;21023;-72
2021/03/24 04:03:54;;;;;;;82.07;49.38;;;;;;;2.70;85.85;102219.41;5276389;28;20516;-70
2021/03/24 04:06:44;;;;;;;78.35;48.08;;;;;;;2.73;85.65;102218.47;5277088;28;20970;-72
2021/03/24 04:09:15;;;;;;;80.60;46.10;;;;;;;2.70;85.68;102213.41;5275203;28;20020;-70
2021/03/24 04:11:53;;;;;;;80.57;49.40;;;;;;;2.75;85.31;102219.28;5275552;28;20036;-72
2021/03/24 04:14:28;;;;;;;78.65;48.78;;;;;;;2.68;85.55;102223.78;5292128;28;20127;-70
2021/03/24 04:16:59;;;;;;;78.13;48.15;;;;;;;2.71;85.86;102218.53;5291635;28;20078;-71
2021/03/24 04:19:38;;;;;;;83.68;49.97;;;;;;;2.74;85.84;102218.44;5276374;28;20032;-71
2021/03/24 04:22:13;;;;;;;86.55;48.70;;;;;;;2.69;85.63;102212.56;5276621;28;20102;-70
2021/03/24 04:24:50;;;;;;;78.38;47.05;;;;;;;2.68;85.54;102210.84;5275684;28;20477;-70
2021/03/24 04:27:26;;;;;;;79.45;48.28;;;;;;;2.70;85.97;102206.47;5276148;28;20111;-70
2021/03/24 04:30:08;;;;;;;82.72;49.90;;;;;;;2.68;85.78;102209.09;5273991;28;20149;-71
2021/03/24 04:32:39;;;;;;;86.57;50.08;;;;;;;2.64;85.31;102215.25;5277009;28;20016;-69
2021/03/24 04:35:14;;;;;;;84.60;48.53;;;;;;;2.65;85.71;102206.63;5276687;28;20683;-70
2021/03/24 04:37:50;;;;;;;81.53;48.75;;;;;;;2.71;86.05;102215.94;5275776;28;20032;-70
2021/03/24 04:40:37;;;;;;;80.10;49.25;;;;;;;2.68;85.90;102216.84;5277464;28;20111;-70
2021/03/24 04:43:12;;;;;;;76.38;46.63;;;;;;;2.61;85.23;102219.66;5276218;28;20549;-70
2021/03/24 04:45:52;;;;;;;78.10;47.55;;;;;;;2.57;85.47;102221.50;5276525;28;20028;-70
2021/03/24 04:48:31;;;;;;;77.57;46.50;;;;;;;2.54;84.86;102218.16;5275844;28;20111;-70
2021/03/24 04:51:09;;;;;;;80.40;48.72;;;;;;;2.53;85.56;102217.31;5276839;28;20051;-69
2021/03/24 04:53:44;;;;;;;80.72;46.67;;;;;;;2.54;85.22;102234.56;5276104;28;20039;-71
2021/03/24 04:56:18;;;;;;;81.13;47.97;;;;;;;2.51;85.50;102232.06;5275317;28;20023;-71
2021/03/24 04:58:55;;;;;;;81.13;49.22;;;;;;;2.44;85.61;102227.94;5274815;28;20037;-70
2021/03/24 05:01:35;;;;;;;84.53;48.95;;;;;;;2.49;85.25;102240.72;5268041;28;20025;-70
2021/03/24 05:04:15;;;;;;;84.43;47.95;;;;;;;2.47;84.94;102237.34;5275162;28;20028;-70
2021/03/24 05:06:51;;;;;;;89.80;48.67;;;;;;;2.46;85.41;102241.66;5273038;28;20123;-69
2021/03/24 05:09:23;;;;;;;76.93;47.63;;;;;;;2.37;84.68;102229.00;5276288;28;20029;-69
2021/03/24 05:12:19;;;;;;;81.53;45.72;;;;;;;2.44;84.94;102238.28;5271803;28;20032;-68
2021/03/24 05:14:59;;;;;;;75.97;45.88;;;;;;;2.40;84.97;102239.25;5276081;28;20028;-68
2021/03/24 05:17:34;;;;;;;75.07;44.47;;;;;;;2.32;84.79;102236.06;5275789;28;20032;-69
2021/03/24 05:20:17;;;;;;;75.82;45.33;;;;;;;2.30;85.04;102235.22;5275118;28;20051;-72
2021/03/24 05:22:49;;;;;;;83.03;47.00;;;;;;;2.25;84.98;102237.94;5275275;28;20052;-69
2021/03/24 05:25:26;;;;;;;80.22;46.90;;;;;;;2.29;84.61;102244.72;5275081;28;20028;-69
2021/03/24 05:28:04;;;;;;;80.75;47.85;;;;;;;2.22;84.72;102240.63;5275051;28;20081;-70
2021/03/24 05:30:39;;;;;;;79.07;45.42;;;;;;;2.23;85.21;102239.72;5275751;28;20385;-70
2021/03/24 05:33:19;;;;;;;82.32;46.03;;;;;;;2.21;85.15;102238.09;5273771;28;20077;-70
2021/03/24 05:36:02;;;;;;;76.40;46.58;;;;;;;2.18;84.82;102232.09;5274933;28;20035;-69
2021/03/24 05:38:42;;;;;;;83.25;47.00;;;;;;;2.21;85.26;102243.25;5275127;28;20037;-69
2021/03/24 05:41:30;;;;;;;81.05;46.72;;;;;;;2.23;85.74;102237.13;5276106;28;20103;-69
2021/03/24 05:44:25;;;;;;;80.25;45.03;;;;;;;2.26;85.25;102243.97;5275775;28;20051;-68
2021/03/24 05:47:00;;;;;;;83.72;49.50;;;;;;;2.18;86.09;102247.59;5274511;28;20424;-69
2021/03/24 05:49:47;;;;;;;82.35;47.67;;;;;;;2.23;86.09;102252.66;5276080;28;20056;-68
2021/03/24 05:52:40;;;;;;;83.88;49.25;;;;;;;2.24;86.26;102249.19;5275267;28;21055;-72
2021/03/24 05:55:29;;;;;;;92.88;48.70;;;;;;;2.27;86.52;102248.25;5274874;28;20571;-70
2021/03/24 05:58:16;;;;;;;89.53;50.83;;;;;;;2.27;86.81;102246.50;5275904;28;20028;-69
2021/03/24 06:00:52;;;;;;;90.70;49.17;;;;;;;2.29;86.79;102247.31;5274543;28;20036;-70
2021/03/24 06:03:47;;;;;;;87.53;48.80;;;;;;;2.32;86.85;102247.25;5276256;28;20401;-69
2021/03/24 06:06:45;;;;;;;91.47;48.42;;;;;;;2.36;86.72;102251.44;5274707;28;20029;-70
2021/03/24 06:09:41;;;;;;;93.20;49.40;;;;;;;2.39;86.63;102250.50;5273568;28;20501;-69
2021/03/24 06:12:28;;;;;;;86.43;47.60;;;;;;;2.38;86.50;102247.03;5272942;28;20040;-71
2021/03/24 06:15:36;;;;;;;79.70;47.45;;;;;;;2.44;86.12;102246.03;5275255;28;20492;-71
2021/03/24 06:18:50;;;;;;;94.20;49.00;;;;;;;2.49;86.33;102243.31;5275904;28;20032;-70
2021/03/24 06:21:44;;;;;;;91.88;48.65;;;;;;;2.52;86.38;102245.81;5274100;28;20359;-70
2021/03/24 06:24:23;;;;;;;;;;;;;;;2.59;85.38;102245.59;5271493;28;20036;-71
2021/03/24 06:27:04;;;;;;;85.47;46.45;;;;;;;2.53;85.79;102247.50;5273650;28;19917;-72
2021/03/24 06:29:54;;;;;;;82.25;48.78;;;;;;;2.53;86.39;102243.19;5272111;28;20078;-71
2021/03/24 06:32:33;;;;;;;89.32;50.28;;;;;;;2.58;86.46;102238.75;5273133;28;20028;-71
2021/03/24 06:35:17;;;;;;;88.15;51.13;;;;;;;2.64;86.18;102237.69;5274197;28;20032;-71
2021/03/24 06:37:59;;;;;;;87.60;50.50;;;;;;;2.65;86.54;102245.44;5273256;28;20025;-71
2021/03/24 06:40:42;;;;;;;90.38;49.67;;;;;;;2.71;86.31;102246.13;5274408;28;20037;-70
2021/03/24 06:43:36;;;;;;;84.90;50.13;;;;;;;2.76;86.40;102239.91;5274439;28;20028;-70
2021/03/24 06:46:29;;;;;;;89.68;50.83;;;;;;;2.81;86.54;102243.25;5278795;28;20024;-71
2021/03/24 06:49:31;;;;;;;98.68;48.90;;;;;;;2.87;86.11;102237.84;5276709;28;20485;-70
2021/03/24 06:52:27;;;;;;;90.80;49.00;;;;;;;2.91;86.60;102236.88;5278986;28;20548;-70
2021/03/24 06:55:20;;;;;;;87.13;49.75;;;;;;;2.98;86.28;102239.28;5277733;28;20501;-71
2021/03/24 06:58:28;;;;;;;91.32;51.28;;;;;;;3.04;86.55;102245.13;5277421;28;20037;-71
2021/03/24 07:01:14;;;;;;;89.00;50.33;;;;;;;3.12;86.37;102250.06;5275895;28;20032;-71
2021/03/24 07:04:17;;;;;;;87.45;50.85;;;;;;;3.21;86.08;102239.41;5277964;28;20028;-71
2021/03/24 07:07:29;;;;;;;89.80;51.78;;;;;;;3.36;85.93;102240.66;5276176;28;20087;-71
2021/03/24 07:10:18;;;;;;;88.63;49.80;;;;;;;3.40;85.72;102237.91;5226680;28;20037;-73
2021/03/24 07:13:30;;;;;;;89.68;50.47;;;;;;;3.52;85.68;102241.00;5274901;28;20048;-70
2021/03/24 07:16:28;;;;;;;88.20;49.22;;;;;;;3.68;85.02;102246.56;5275219;28;20424;-71
2021/03/24 07:19:24;;;;;;;98.85;53.20;;;;;;;3.81;85.11;102248.66;5276906;28;20029;-70
2021/03/24 07:22:11;;;;;;;90.22;52.47;;;;;;;3.90;84.68;102244.91;5277884;28;20029;-73
2021/03/24 07:25:05;;;;;;;81.97;47.78;;;;;;;4.04;83.57;102228.88;5277878;28;20029;-71
2021/03/24 07:27:42;;;;;;;;;;;;;;;4.20;83.60;102244.72;5277354;28;20463;-71
2021/03/24 07:30:35;;;;;;;85.60;48.20;;;;;;;4.28;83.57;102240.13;5273732;28;20017;-70
2021/03/24 07:33:17;;;;;;;92.25;51.25;;;;;;;4.42;83.22;102232.69;5277469;28;20024;-71
2021/03/24 07:36:03;;;;;;;85.00;48.47;;;;;;;4.52;82.85;102235.78;5277300;28;20035;-70
2021/03/24 07:38:47;;;;;;;86.72;50.75;;;;;;;4.59;83.43;102237.25;5275336;28;20070;-70
2021/03/24 07:41:50;;;;;;;84.90;50.03;;;;;;;4.75;82.47;102240.13;5274708;28;20070;-69
2021/03/24 07:44:35;;;;;;;83.30;48.20;;;;;;;4.88;81.87;102230.94;5276931;28;20075;-69
2021/03/24 07:47:30;;;;;;;85.30;50.45;;;;;;;5.00;81.24;102235.69;5275885;28;20111;-70
2021/03/24 07:50:18;;;;;;;81.43;49.22;;;;;;;5.13;81.51;102236.03;5276626;28;20032;-71
2021/03/24 07:53:22;;;;;;;83.03;46.58;;;;;;;5.33;80.23;102237.81;5276644;28;20032;-69
2021/03/24 07:56:03;;;;;;;;;;;;;;;5.46;79.90;102236.44;5276043;28;20052;-72
2021/03/24 07:59:15;;;;;;;77.45;47.45;;;;;;;5.68;78.87;102230.31;5291137;28;19920;-69
2021/03/24 08:01:49;;;;;;;81.25;46.95;;;;;;;5.76;78.24;102230.88;5277327;28;20024;-70
2021/03/24 08:04:53;;;;;;;74.85;45.60;;;;;;;5.93;78.15;102230.16;5276095;28;20028;-70
2021/03/24 08:07:34;;;;;;;;;;;;;;;6.06;77.57;102226.97;5276672;28;20351;-71
2021/03/24 08:10:24;;;;;;;74.65;45.13;;;;;;;6.18;76.71;102228.19;5271223;28;19916;-73
2021/03/24 08:13:23;;;;;;;75.50;43.72;;;;;;;6.35;75.98;102227.44;5268588;28;20032;-69
2021/03/24 08:16:18;;;;;;;70.47;43.65;;;;;;;6.50;75.03;102218.94;5273162;28;20028;-70
2021/03/24 08:19:17;;;;;;;71.70;44.92;;;;;;;6.61;75.71;102207.19;5273484;28;20020;-70
2021/03/24 08:22:25;;;;;;;72.10;45.78;;;;;;;6.78;74.94;102215.03;5275545;28;20031;-72
2021/03/24 08:25:11;;;;;;;71.18;44.35;;;;;;;6.93;73.45;102223.91;5275485;28;20437;-69
2021/03/24 08:28:20;;;;;;;67.47;43.25;;;;;;;7.13;73.62;102225.56;5272884;28;20616;-69
2021/03/24 08:31:20;;;;;;;62.83;42.10;;;;;;;7.31;73.26;102220.31;5275433;28;20245;-72
2021/03/24 08:34:20;;;;;;;66.97;42.65;;;;;;;7.48;72.19;102229.06;5275995;28;20424;-71
2021/03/24 08:37:12;;;;;;;66.18;41.30;;;;;;;7.57;71.27;102221.59;5276337;28;20021;-69
2021/03/24 08:40:02;;;;;;;67.93;42.85;;;;;;;7.80;71.46;102222.19;5276411;28;20032;-69
2021/03/24 08:42:55;;;;;;;64.40;40.08;;;;;;;7.84;70.79;102218.53;5275333;28;20087;-69
2021/03/24 08:45:55;;;;;;;64.70;40.80;;;;;;;8.03;71.62;102215.78;5275995;28;20093;-70
2021/03/24 08:48:34;;;;;;;62.97;39.60;;;;;;;8.19;71.05;102214.09;5272344;28;20306;-69
2021/03/24 08:51:38;;;;;;;66.05;42.38;;;;;;;8.38;70.38;102208.75;5276049;28;20737;-69
2021/03/24 08:54:40;;;;;;;59.25;40.78;;;;;;;8.58;69.23;102202.44;5275134;28;20031;-70
2021/03/24 08:57:30;;;;;;;65.15;41.60;;;;;;;8.76;68.33;102208.44;5274715;28;20048;-71
2021/03/24 09:00:29;;;;;;;64.55;40.42;;;;;;;8.87;68.20;102205.25;5278978;22;20052;-73
2021/03/24 09:03:36;;;;;;;60.03;39.20;;;;;;;9.07;67.46;102196.25;5250840;28;20435;-73
2021/03/24 09:06:26;;;;;;;61.70;39.85;;;;;;;9.22;66.48;102203.22;5272882;28;20031;-73
2021/03/24 09:09:11;;;;;;;63.90;40.17;;;;;;;9.39;66.22;102205.69;5271995;28;20341;-73
2021/03/24 09:11:45;;;;;;;59.00;36.92;;;;;;;9.46;65.62;102203.56;5275479;28;20036;-73
2021/03/24 09:14:34;;;;;;;61.75;39.17;;;;;;;9.60;65.83;102197.53;5263368;28;20028;-73
2021/03/24 09:17:08;;;;;;;60.53;38.13;;;;;;;9.70;64.89;102203.94;5273010;28;20103;-73
2021/03/24 09:20:09;;;;;;;61.75;38.72;;;;;;;9.90;64.32;102202.72;5274292;28;20543;-73
2021/03/24 09:23:00;;;;;;;57.17;37.22;;;;;;;10.03;63.40;102202.81;5274678;28;20492;-73
2021/03/24 09:25:35;;;;;;;60.00;37.83;;;;;;;10.10;63.01;102201.50;5271840;28;20032;-73
2021/03/24 09:28:12;;;;;;;57.88;36.17;;;;;;;10.38;62.63;102198.06;5273599;28;20016;-73
2021/03/24 09:31:09;;;;;;;61.67;38.22;;;;;;;10.51;62.23;102196.38;5267493;28;20047;-73
2021/03/24 09:33:43;;;;;;;54.83;36.33;;;;;;;10.65;61.92;102200.75;5255050;28;20033;-73
2021/03/24 09:36:47;;;;;;;56.10;37.17;;;;;;;10.75;61.43;102196.56;5274716;28;20032;-73
2021/03/24 09:39:24;;;;;;;58.03;36.00;;;;;;;10.98;60.74;102197.72;5272959;28;20343;-73
2021/03/24 09:42:02;;;;;;;56.83;34.95;;;;;;;11.05;60.39;102191.13;5274424;28;20024;-74
2021/03/24 09:44:57;;;;;;;53.80;34.65;;;;;;;11.31;59.81;102181.56;5270558;28;20086;-73
2021/03/24 09:47:34;;;;;;;54.72;34.92;;;;;;;11.34;59.10;102191.00;5272102;28;20024;-74
2021/03/24 09:50:11;;;;;;;50.65;33.97;;;;;;;11.47;58.10;102197.09;5273132;28;20036;-73
2021/03/24 09:53:11;;;;;;;57.65;35.80;;;;;;;11.57;57.60;102189.47;5250686;28;20024;-73
2021/03/24 09:55:59;;;;;;;54.08;34.70;;;;;;;11.68;56.84;102189.59;5269861;28;20036;-74
2021/03/24 09:58:59;;;;;;;59.03;35.20;;;;;;;11.77;58.29;102186.31;5272865;28;20039;-74
2021/03/24 10:02:02;;;;;;;59.20;34.80;;;;;;;12.00;55.96;102182.13;5273781;28;20024;-74
2021/03/24 10:04:44;;;;;;;58.28;36.83;;;;;;;12.15;56.12;102174.97;5273514;28;20032;-74
2021/03/24 10:07:17;;;;;;;53.75;33.72;;;;;;;12.05;56.11;102172.16;5274070;28;20023;-73
2021/03/24 10:10:22;;;;;;;55.90;32.58;;;;;;;12.48;55.23;102184.06;5273978;28;20025;-74
2021/03/24 10:13:02;;;;;;;51.38;31.83;;;;;;;12.36;53.79;102172.63;5270559;28;20024;-74
2021/03/24 10:15:41;;;;;;;48.30;30.17;;;;;;;12.50;53.56;102174.25;5267637;28;20032;-74
2021/03/24 10:18:15;;;;;;;48.10;29.77;;;;;;;12.70;52.24;102175.47;5273350;28;20028;-73
2021/03/24 10:20:57;;;;;;;47.38;29.60;;;;;;;12.76;52.28;102170.59;5272706;28;20025;-73
2021/03/24 10:23:41;;;;;;;49.90;31.88;;;;;;;12.87;52.78;102172.44;5270827;28;21034;-73
2021/03/24 10:26:40;;;;;;;45.53;29.58;;;;;;;12.88;52.37;102169.72;5272227;28;20036;-74
2021/03/24 10:29:28;;;;;;;50.05;30.20;;;;;;;13.14;52.29;102159.91;5275761;28;20511;-73
2021/03/24 10:32:05;;;;;;;48.35;29.45;;;;;;;13.03;49.95;102166.88;5273925;28;20040;-73
2021/03/24 10:34:44;;;;;;;38.30;25.20;;;;;;;13.26;49.62;102158.16;5271807;28;20043;-73
2021/03/24 10:37:28;;;;;;;43.83;27.45;;;;;;;13.32;49.85;102159.47;5264513;28;20034;-73
2021/03/24 10:40:11;;;;;;;41.85;25.95;;;;;;;13.32;50.00;102160.31;5275054;28;20040;-73
2021/03/24 10:42:57;;;;;;;36.03;24.35;;;;;;;13.20;49.06;102149.84;5270717;28;20036;-73
2021/03/24 10:45:31;;;;;;;44.88;26.65;;;;;;;13.36;49.48;102151.22;5275921;28;20028;-73
2021/03/24 10:48:28;;;;;;;43.15;24.63;;;;;;;13.60;48.78;102145.91;5277653;28;20650;-73
2021/03/24 10:51:53;;;;;;;38.58;23.13;;;;;;;13.75;49.25;102153.56;5274545;28;20032;-73
2021/03/24 10:54:34;;;;;;;40.83;24.40;;;;;;;13.86;48.28;102145.66;5151540;28;20106;-73
2021/03/24 10:57:30;;;;;;;34.03;22.55;;;;;;;13.80;49.04;102141.72;5159444;28;20031;-73
2021/03/24 11:00:15;;;;;;;33.78;21.17;;;;;;;14.00;48.06;102155.97;5254301;28;20125;-74
2021/03/24 11:02:57;;;;;;;35.30;23.10;;;;;;;13.93;48.14;102141.59;5263351;28;20536;-74
2021/03/24 11:05:40;;;;;;;33.78;24.25;;;;;;;14.01;48.36;102152.38;5269944;28;20054;-74
2021/03/24 11:08:11;;;;;;;41.10;25.80;;;;;;;14.13;47.94;102153.22;5273657;28;20052;-74
2021/03/24 11:10:59;;;;;;;35.93;23.67;;;;;;;14.21;47.89;102149.97;5274501;28;20443;-74
2021/03/24 11:13:47;;;;;;;36.38;24.73;;;;;;;14.32;47.19;102149.97;5273426;28;20024;-74
2021/03/24 11:16:33;;;;;;;37.70;25.73;;;;;;;14.27;47.54;102145.03;5271691;28;20377;-75
2021/03/24 11:19:29;;;;;;;39.13;26.77;;;;;;;14.27;48.39;102145.03;5275799;28;20033;-75
2021/03/24 11:22:19;;;;;;;36.92;26.40;;;;;;;14.35;47.72;102144.41;5277337;28;20037;-75
2021/03/24 11:24:59;;;;;;;38.58;26.52;;;;;;;14.39;47.50;102147.66;5275181;28;20028;-75
2021/03/24 11:27:39;;;;;;;42.20;28.17;;;;;;;14.40;48.37;102139.63;5273208;28;20115;-74
2021/03/24 11:30:30;;;;;;;39.28;26.15;;;;;;;14.28;47.62;102108.97;5255494;28;22843;-74
2021/03/24 11:33:26;;;;;;;38.30;25.75;;;;;;;14.47;47.17;102127.63;5265791;28;20201;-73
2021/03/24 11:36:23;;;;;;;35.47;25.15;;;;;;;14.36;47.02;102133.78;5273084;28;20038;-73
2021/03/24 11:39:16;;;;;;;34.08;25.27;;;;;;;14.47;47.65;102132.03;5273587;28;20474;-74
2021/03/24 11:41:47;;;;;;;32.73;24.60;;;;;;;14.37;46.65;102121.41;5269875;28;20028;-74
2021/03/24 11:44:22;;;;;;;38.80;25.15;;;;;;;14.39;47.38;102118.66;5271359;28;20029;-73
2021/03/24 11:47:11;;;;;;;38.00;25.58;;;;;;;14.54;47.96;102125.34;5270584;28;20028;-74
2021/03/24 11:49:47;;;;;;;36.55;25.67;;;;;;;14.57;46.84;102127.75;5270465;28;20098;-73
2021/03/24 11:52:46;;;;;;;38.72;26.20;;;;;;;14.72;46.84;102123.84;5254535;28;20032;-74
2021/03/24 11:55:46;;;;;;;35.33;24.20;;;;;;;14.93;47.28;102115.16;5272123;28;20033;-74
2021/03/24 11:58:52;;;;;;;34.00;24.98;;;;;;;15.06;46.44;102121.91;5269528;28;20725;-74
2021/03/24 12:02:00;;;;;;;35.90;24.67;;;;;;;15.12;45.90;102109.16;5270250;28;20048;-74
2021/03/24 12:04:46;;;;;;;36.17;25.00;;;;;;;15.10;45.62;102106.63;5268834;28;20507;-74
2021/03/24 12:07:24;;;;;;;34.47;23.23;;;;;;;15.09;45.45;102110.25;5271526;28;20433;-74
2021/03/24 12:10:23;;;;;;;37.92;23.05;;;;;;;15.22;44.29;102107.41;5269805;28;20447;-74
2021/03/24 12:13:12;;;;;;;32.05;22.00;;;;;;;15.33;44.12;102096.78;5269697;28;20066;-74
2021/03/24 12:15:43;;;;;;;35.33;24.38;;;;;;;15.53;45.13;102092.41;5266976;28;20037;-74
2021/03/24 12:18:17;;;;;;;31.95;21.95;;;;;;;15.61;44.22;102089.97;5251609;28;20219;-74
2021/03/24 12:20:58;;;;;;;32.83;22.40;;;;;;;15.68;43.09;102091.16;5254460;28;20063;-74
2021/03/24 12:23:34;;;;;;;31.10;20.70;;;;;;;15.69;42.97;102092.00;5272379;28;20529;-74
2021/03/24 12:26:05;;;;;;;33.92;23.65;;;;;;;15.61;42.46;102083.84;5269882;28;20031;-74
2021/03/24 12:28:43;;;;;;;37.80;24.02;;;;;;;15.57;43.01;102085.94;5270888;28;20373;-74